sensor_id;sensor_type;location;lat;lon;timestamp;pressure;altitude;pressure_sealevel;temperature;humidity
24962;BME280;12992;50.884;13.668;2023-02-19T00:02:19;97267.28;;;8.45;100.00
24962;BME280;12992;50.884;13.668;2023-02-19T00:04:44;97274.09;;;8.47;100.00
24962;BME280;12992;50.884;13.668;2023-02-19T00:07:09;97256.66;;;8.43;100.00
24962;BME280;12992;50.884;13.668;2023-02-19T00:09:35;97259.13;;;8.45;100.00
24962;BME280;12992;50.884;13.668;2023-02-19T00:12:00;97248.53;;;8.43;100.00
24962;BME280;12992;50.884;13.668;2023-02-19T00:14:25;97246.06;;;8.42;100.00
24962;BME280;12992;50.884;13.668;2023-02-19T00:16:50;97250.31;;;8.38;100.00
24962;BME280;12992;50.884;13.668;2023-02-19T00:19:18;97245.50;;;8.40;100.00
24962;BME280;12992;50.884;13.668;2023-02-19T00:21:44;97253.75;;;8.33;100.00
24962;BME280;12992;50.884;13.668;2023-02-19T00:24:11;97247.97;;;8.30;100.00
24962;BME280;12992;50.884;13.668;2023-02-19T00:26:38;97250.91;;;8.28;100.00
24962;BME280;12992;50.884;13.668;2023-02-19T00:29:03;97255.88;;;8.31;100.00
24962;BME280;12992;50.884;13.668;2023-02-19T00:31:31;97263.31;;;8.36;100.00
24962;BME280;12992;50.884;13.668;2023-02-19T00:34:00;97249.78;;;8.24;100.00
24962;BME280;12992;50.884;13.668;2023-02-19T00:36:26;97253.31;;;8.24;100.00
24962;BME280;12992;50.884;13.668;2023-02-19T00:38:52;97242.84;;;8.16;100.00
24962;BME280;12992;50.884;13.668;2023-02-19T00:41:20;97244.16;;;8.14;100.00
24962;BME280;12992;50.884;13.668;2023-02-19T00:43:57;97238.03;;;8.07;100.00
24962;BME280;12992;50.884;13.668;2023-02-19T00:48:59;97234.06;;;7.98;100.00
24962;BME280;12992;50.884;13.668;2023-02-19T00:51:29;97240.78;;;7.95;100.00
24962;BME280;12992;50.884;13.668;2023-02-19T00:53:55;97238.31;;;7.93;100.00
24962;BME280;12992;50.884;13.668;2023-02-19T00:56:21;97230.41;;;7.92;100.00
24962;BME280;12992;50.884;13.668;2023-02-19T00:58:46;97231.50;;;7.91;100.00
24962;BME280;12992;50.884;13.668;2023-02-19T01:01:12;97220.19;;;7.82;100.00
24962;BME280;12992;50.884;13.668;2023-02-19T01:03:38;97215.72;;;7.76;100.00
24962;BME280;12992;50.884;13.668;2023-02-19T01:06:05;97206.13;;;7.69;100.00
24962;BME280;12992;50.884;13.668;2023-02-19T01:08:32;97214.25;;;7.69;100.00
24962;BME280;12992;50.884;13.668;2023-02-19T01:11:00;97221.19;;;7.64;100.00
24962;BME280;12992;50.884;13.668;2023-02-19T01:13:26;97217.31;;;7.60;100.00
24962;BME280;12992;50.884;13.668;2023-02-19T01:15:53;97212.94;;;7.59;100.00
24962;BME280;12992;50.884;13.668;2023-02-19T01:18:19;97212.72;;;7.61;100.00
24962;BME280;12992;50.884;13.668;2023-02-19T01:20:44;97213.88;;;7.65;100.00
24962;BME280;12992;50.884;13.668;2023-02-19T01:23:11;97200.09;;;7.66;100.00
24962;BME280;12992;50.884;13.668;2023-02-19T01:25:38;97194.09;;;7.64;100.00
24962;BME280;12992;50.884;13.668;2023-02-19T01:28:03;97186.66;;;7.72;100.00
24962;BME280;12992;50.884;13.668;2023-02-19T01:30:29;97190.25;;;7.77;100.00
24962;BME280;12992;50.884;13.668;2023-02-19T01:32:55;97189.44;;;7.77;100.00
24962;BME280;12992;50.884;13.668;2023-02-19T01:35:20;97188.97;;;7.80;100.00
24962;BME280;12992;50.884;13.668;2023-02-19T01:37:45;97181.41;;;7.82;100.00
24962;BME280;12992;50.884;13.668;2023-02-19T01:40:11;97187.41;;;7.84;100.00
24962;BME280;12992;50.884;13.668;2023-02-19T01:42:41;97179.78;;;7.81;100.00
24962;BME280;12992;50.884;13.668;2023-02-19T01:48:05;97170.44;;;7.88;100.00
24962;BME280;12992;50.884;13.668;2023-02-19T01:50:35;97163.69;;;7.91;100.00
24962;BME280;12992;50.884;13.668;2023-02-19T01:53:05;97161.25;;;7.89;100.00
24962;BME280;12992;50.884;13.668;2023-02-19T01:55:33;97147.56;;;7.84;100.00
24962;BME280;12992;50.884;13.668;2023-02-19T01:57:59;97154.81;;;7.79;100.00
24962;BME280;12992;50.884;13.668;2023-02-19T02:00:26;97148.78;;;7.77;100.00
24962;BME280;12992;50.884;13.668;2023-02-19T02:02:53;97147.38;;;7.74;100.00
24962;BME280;12992;50.884;13.668;2023-02-19T02:05:35;97139.19;;;7.69;100.00
24962;BME280;12992;50.884;13.668;2023-02-19T02:08:02;97140.94;;;7.63;100.00
24962;BME280;12992;50.884;13.668;2023-02-19T02:10:47;97148.03;;;7.64;100.00
24962;BME280;12992;50.884;13.668;2023-02-19T02:13:12;97134.13;;;7.61;100.00
24962;BME280;12992;50.884;13.668;2023-02-19T02:18:38;97136.97;;;7.54;100.00
24962;BME280;12992;50.884;13.668;2023-02-19T02:21:35;97141.56;;;7.54;100.00
24962;BME280;12992;50.884;13.668;2023-02-19T02:27:03;97133.00;;;7.45;100.00
24962;BME280;12992;50.884;13.668;2023-02-19T02:32:32;97111.47;;;7.38;100.00
24962;BME280;12992;50.884;13.668;2023-02-19T02:35:07;97113.03;;;7.34;100.00
24962;BME280;12992;50.884;13.668;2023-02-19T02:37:37;97099.13;;;7.31;100.00
24962;BME280;12992;50.884;13.668;2023-02-19T02:40:06;97102.91;;;7.30;100.00
24962;BME280;12992;50.884;13.668;2023-02-19T02:42:33;97088.78;;;7.28;100.00
24962;BME280;12992;50.884;13.668;2023-02-19T02:51:11;97079.25;;;7.14;100.00
24962;BME280;12992;50.884;13.668;2023-02-19T02:56:39;97077.63;;;7.13;100.00
24962;BME280;12992;50.884;13.668;2023-02-19T02:59:08;97082.09;;;7.19;100.00
24962;BME280;12992;50.884;13.668;2023-02-19T03:01:45;97079.63;;;7.17;100.00
24962;BME280;12992;50.884;13.668;2023-02-19T03:04:36;97071.00;;;7.20;100.00
24962;BME280;12992;50.884;13.668;2023-02-19T03:07:25;97075.72;;;7.25;100.00
24962;BME280;12992;50.884;13.668;2023-02-19T03:09:54;97070.19;;;7.20;100.00
24962;BME280;12992;50.884;13.668;2023-02-19T03:12:21;97081.72;;;7.27;100.00
24962;BME280;12992;50.884;13.668;2023-02-19T03:15:08;97080.72;;;7.33;100.00
24962;BME280;12992;50.884;13.668;2023-02-19T03:17:59;97073.00;;;7.25;100.00
24962;BME280;12992;50.884;13.668;2023-02-19T03:20:47;97076.63;;;7.30;100.00
24962;BME280;12992;50.884;13.668;2023-02-19T03:23:16;97066.63;;;7.31;100.00
24962;BME280;12992;50.884;13.668;2023-02-19T03:25:43;97065.34;;;7.33;100.00
24962;BME280;12992;50.884;13.668;2023-02-19T03:28:54;97068.38;;;7.37;100.00
24962;BME280;12992;50.884;13.668;2023-02-19T03:31:42;97062.38;;;7.35;100.00
24962;BME280;12992;50.884;13.668;2023-02-19T03:34:12;97057.84;;;7.41;100.00
24962;BME280;12992;50.884;13.668;2023-02-19T03:36:46;97055.16;;;7.41;100.00
24962;BME280;12992;50.884;13.668;2023-02-19T03:39:14;97049.66;;;7.35;100.00
24962;BME280;12992;50.884;13.668;2023-02-19T03:44:44;97042.34;;;7.36;100.00
24962;BME280;12992;50.884;13.668;2023-02-19T03:47:25;97054.94;;;7.42;100.00
24962;BME280;12992;50.884;13.668;2023-02-19T03:49:57;97058.47;;;7.43;100.00
24962;BME280;12992;50.884;13.668;2023-02-19T03:52:36;97044.66;;;7.44;100.00
24962;BME280;12992;50.884;13.668;2023-02-19T03:55:18;97028.66;;;7.43;100.00
24962;BME280;12992;50.884;13.668;2023-02-19T04:00:17;97027.91;;;7.47;100.00
24962;BME280;12992;50.884;13.668;2023-02-19T04:03:27;97027.66;;;7.49;100.00
24962;BME280;12992;50.884;13.668;2023-02-19T04:05:47;97014.13;;;7.49;100.00
24962;BME280;12992;50.884;13.668;2023-02-19T04:08:17;97014.13;;;7.49;100.00
24962;BME280;12992;50.884;13.668;2023-02-19T04:10:49;97008.44;;;7.50;100.00
24962;BME280;12992;50.884;13.668;2023-02-19T04:13:24;97003.63;;;7.52;100.00
24962;BME280;12992;50.884;13.668;2023-02-19T04:15:53;97004.78;;;7.56;100.00
24962;BME280;12992;50.884;13.668;2023-02-19T04:18:24;97005.94;;;7.60;100.00
24962;BME280;12992;50.884;13.668;2023-02-19T04:20:51;96997.81;;;7.60;100.00
24962;BME280;12992;50.884;13.668;2023-02-19T04:23:19;96994.59;;;7.63;100.00
24962;BME280;12992;50.884;13.668;2023-02-19T04:25:49;96992.22;;;7.67;100.00
24962;BME280;12992;50.884;13.668;2023-02-19T04:28:17;97003.41;;;7.71;100.00
24962;BME280;12992;50.884;13.668;2023-02-19T04:30:43;96996.09;;;7.71;100.00
24962;BME280;12992;50.884;13.668;2023-02-19T04:33:08;96990.94;;;7.70;100.00
24962;BME280;12992;50.884;13.668;2023-02-19T04:35:33;97005.56;;;7.69;100.00
24962;BME280;12992;50.884;13.668;2023-02-19T04:37:59;97000.69;;;7.71;100.00
24962;BME280;12992;50.884;13.668;2023-02-19T04:40:24;96986.56;;;7.69;100.00
24962;BME280;12992;50.884;13.668;2023-02-19T04:42:49;96985.16;;;7.66;100.00
24962;BME280;12992;50.884;13.668;2023-02-19T04:45:15;96978.91;;;7.65;100.00
24962;BME280;12992;50.884;13.668;2023-02-19T04:47:40;96981.31;;;7.62;100.00
24962;BME280;12992;50.884;13.668;2023-02-19T04:50:06;96992.41;;;7.60;100.00
24962;BME280;12992;50.884;13.668;2023-02-19T04:52:32;96976.47;;;7.64;100.00
24962;BME280;12992;50.884;13.668;2023-02-19T04:54:57;96984.59;;;7.64;100.00
24962;BME280;12992;50.884;13.668;2023-02-19T04:57:22;96995.44;;;7.64;100.00
24962;BME280;12992;50.884;13.668;2023-02-19T04:59:48;96985.41;;;7.64;100.00
24962;BME280;12992;50.884;13.668;2023-02-19T05:02:13;96982.69;;;7.64;100.00
24962;BME280;12992;50.884;13.668;2023-02-19T05:04:38;96976.72;;;7.62;100.00
24962;BME280;12992;50.884;13.668;2023-02-19T05:07:04;96963.41;;;7.61;100.00
24962;BME280;12992;50.884;13.668;2023-02-19T05:09:29;96968.00;;;7.60;100.00
24962;BME280;12992;50.884;13.668;2023-02-19T05:11:54;96963.41;;;7.61;100.00
24962;BME280;12992;50.884;13.668;2023-02-19T05:14:20;96973.44;;;7.60;100.00
24962;BME280;12992;50.884;13.668;2023-02-19T05:16:45;96973.25;;;7.67;100.00
24962;BME280;12992;50.884;13.668;2023-02-19T05:19:11;96955.59;;;7.64;100.00
24962;BME280;12992;50.884;13.668;2023-02-19T05:21:36;96955.69;;;7.70;100.00
24962;BME280;12992;50.884;13.668;2023-02-19T05:24:02;96960.09;;;7.76;100.00
24962;BME280;12992;50.884;13.668;2023-02-19T05:26:27;96965.28;;;7.77;100.00
24962;BME280;12992;50.884;13.668;2023-02-19T05:28:53;96963.06;;;7.74;100.00
24962;BME280;12992;50.884;13.668;2023-02-19T05:31:19;96966.34;;;7.76;100.00
24962;BME280;12992;50.884;13.668;2023-02-19T05:33:45;96971.78;;;7.76;100.00
24962;BME280;12992;50.884;13.668;2023-02-19T05:36:15;96967.16;;;7.77;100.00
24962;BME280;12992;50.884;13.668;2023-02-19T05:38:41;96968.00;;;7.77;100.00
24962;BME280;12992;50.884;13.668;2023-02-19T05:41:21;96963.41;;;7.78;100.00
24962;BME280;12992;50.884;13.668;2023-02-19T05:43:47;96978.81;;;7.77;100.00
24962;BME280;12992;50.884;13.668;2023-02-19T05:46:15;96973.41;;;7.77;100.00
24962;BME280;12992;50.884;13.668;2023-02-19T05:48:42;96998.66;;;7.78;100.00
24962;BME280;12992;50.884;13.668;2023-02-19T05:51:10;97001.38;;;7.78;100.00
24962;BME280;12992;50.884;13.668;2023-02-19T05:53:36;97001.38;;;7.78;100.00
24962;BME280;12992;50.884;13.668;2023-02-19T05:56:02;97003.72;;;7.74;100.00
24962;BME280;12992;50.884;13.668;2023-02-19T05:58:28;97024.84;;;7.72;100.00
24962;BME280;12992;50.884;13.668;2023-02-19T06:00:54;97026.63;;;7.66;100.00
24962;BME280;12992;50.884;13.668;2023-02-19T06:03:20;97029.28;;;7.61;100.00
24962;BME280;12992;50.884;13.668;2023-02-19T06:05:46;97025.88;;;7.54;100.00
24962;BME280;12992;50.884;13.668;2023-02-19T06:08:14;97034.25;;;7.53;100.00
24962;BME280;12992;50.884;13.668;2023-02-19T06:10:40;97049.09;;;7.50;100.00
24962;BME280;12992;50.884;13.668;2023-02-19T06:13:07;97049.91;;;7.51;100.00
24962;BME280;12992;50.884;13.668;2023-02-19T06:15:33;97051.22;;;7.48;100.00
24962;BME280;12992;50.884;13.668;2023-02-19T06:17:58;97073.97;;;7.47;100.00
24962;BME280;12992;50.884;13.668;2023-02-19T06:20:23;97077.84;;;7.51;100.00
24962;BME280;12992;50.884;13.668;2023-02-19T06:22:49;97083.50;;;7.50;100.00
24962;BME280;12992;50.884;13.668;2023-02-19T06:25:15;97086.22;;;7.50;100.00
24962;BME280;12992;50.884;13.668;2023-02-19T06:27:40;97087.53;;;7.47;100.00
24962;BME280;12992;50.884;13.668;2023-02-19T06:30:06;97086.38;;;7.43;100.00
24962;BME280;12992;50.884;13.668;2023-02-19T06:32:31;97091.78;;;7.43;100.00
24962;BME280;12992;50.884;13.668;2023-02-19T06:34:57;97099.91;;;7.43;100.00
24962;BME280;12992;50.884;13.668;2023-02-19T06:37:22;97100.13;;;7.42;100.00
24962;BME280;12992;50.884;13.668;2023-02-19T06:39:47;97103.19;;;7.45;100.00
24962;BME280;12992;50.884;13.668;2023-02-19T06:42:12;97088.84;;;7.45;100.00
24962;BME280;12992;50.884;13.668;2023-02-19T06:44:38;97093.19;;;7.46;100.00
24962;BME280;12992;50.884;13.668;2023-02-19T06:47:03;97109.19;;;7.47;100.00
24962;BME280;12992;50.884;13.668;2023-02-19T06:49:28;97100.56;;;7.50;100.00
24962;BME280;12992;50.884;13.668;2023-02-19T06:51:54;97088.09;;;7.49;100.00
24962;BME280;12992;50.884;13.668;2023-02-19T06:54:19;97102.31;;;7.56;100.00
24962;BME280;12992;50.884;13.668;2023-02-19T06:56:44;97106.09;;;7.55;100.00
24962;BME280;12992;50.884;13.668;2023-02-19T06:59:14;97104.47;;;7.54;100.00
24962;BME280;12992;50.884;13.668;2023-02-19T07:01:43;97117.75;;;7.56;100.00
24962;BME280;12992;50.884;13.668;2023-02-19T07:04:09;97115.31;;;7.54;100.00
24962;BME280;12992;50.884;13.668;2023-02-19T07:06:35;97119.06;;;7.53;100.00
24962;BME280;12992;50.884;13.668;2023-02-19T07:09:01;97121.28;;;7.56;100.00
24962;BME280;12992;50.884;13.668;2023-02-19T07:11:29;97132.38;;;7.55;100.00
24962;BME280;12992;50.884;13.668;2023-02-19T07:13:55;97124.00;;;7.56;100.00
24962;BME280;12992;50.884;13.668;2023-02-19T07:16:21;97132.97;;;7.57;100.00
24962;BME280;12992;50.884;13.668;2023-02-19T07:18:47;97136.03;;;7.60;100.00
24962;BME280;12992;50.884;13.668;2023-02-19T07:21:13;97132.25;;;7.61;100.00
24962;BME280;12992;50.884;13.668;2023-02-19T07:23:40;97133.88;;;7.62;100.00
24962;BME280;12992;50.884;13.668;2023-02-19T07:26:12;97138.81;;;7.65;100.00
24962;BME280;12992;50.884;13.668;2023-02-19T07:28:43;97142.09;;;7.67;100.00
24962;BME280;12992;50.884;13.668;2023-02-19T07:31:08;97136.47;;;7.69;100.00
24962;BME280;12992;50.884;13.668;2023-02-19T07:33:33;97142.47;;;7.71;100.00
24962;BME280;12992;50.884;13.668;2023-02-19T07:35:59;97133.75;;;7.69;100.00
24962;BME280;12992;50.884;13.668;2023-02-19T07:38:25;97137.28;;;7.70;100.00
24962;BME280;12992;50.884;13.668;2023-02-19T07:40:51;97139.75;;;7.71;100.00
24962;BME280;12992;50.884;13.668;2023-02-19T07:43:17;97145.75;;;7.73;100.00
24962;BME280;12992;50.884;13.668;2023-02-19T07:45:43;97126.53;;;7.75;100.00
24962;BME280;12992;50.884;13.668;2023-02-19T07:48:08;97137.94;;;7.77;100.00
24962;BME280;12992;50.884;13.668;2023-02-19T07:50:33;97136.28;;;7.76;100.00
24962;BME280;12992;50.884;13.668;2023-02-19T07:52:59;97135.97;;;7.72;100.00
24962;BME280;12992;50.884;13.668;2023-02-19T07:55:24;97126.78;;;7.73;100.00
24962;BME280;12992;50.884;13.668;2023-02-19T07:57:49;97146.00;;;7.72;100.00
24962;BME280;12992;50.884;13.668;2023-02-19T08:00:15;97160.63;;;7.71;100.00
24962;BME280;12992;50.884;13.668;2023-02-19T08:02:40;97198.44;;;7.65;100.00
24962;BME280;12992;50.884;13.668;2023-02-19T08:05:26;97165.34;;;7.12;100.00
24962;BME280;12992;50.884;13.668;2023-02-19T08:07:52;97143.97;;;6.63;100.00
24962;BME280;12992;50.884;13.668;2023-02-19T08:10:17;97150.41;;;6.39;100.00
24962;BME280;12992;50.884;13.668;2023-02-19T08:13:02;97165.19;;;6.24;100.00
24962;BME280;12992;50.884;13.668;2023-02-19T08:15:47;97166.47;;;6.22;100.00
24962;BME280;12992;50.884;13.668;2023-02-19T08:18:14;97188.94;;;6.34;100.00
24962;BME280;12992;50.884;13.668;2023-02-19T08:20:41;97213.69;;;6.49;100.00
24962;BME280;12992;50.884;13.668;2023-02-19T08:23:07;97212.03;;;6.48;100.00
24962;BME280;12992;50.884;13.668;2023-02-19T08:25:33;97216.88;;;6.46;100.00
24962;BME280;12992;50.884;13.668;2023-02-19T08:27:58;97220.50;;;6.40;100.00
24962;BME280;12992;50.884;13.668;2023-02-19T08:30:28;97233.34;;;6.45;100.00
24962;BME280;12992;50.884;13.668;2023-02-19T08:32:54;97252.28;;;6.45;100.00
24962;BME280;12992;50.884;13.668;2023-02-19T08:35:20;97242.81;;;6.36;100.00
24962;BME280;12992;50.884;13.668;2023-02-19T08:37:45;97239.72;;;6.20;100.00
24962;BME280;12992;50.884;13.668;2023-02-19T08:40:11;97233.66;;;6.07;100.00
24962;BME280;12992;50.884;13.668;2023-02-19T08:42:36;97258.88;;;6.19;100.00
24962;BME280;12992;50.884;13.668;2023-02-19T08:45:02;97264.66;;;6.22;100.00
24962;BME280;12992;50.884;13.668;2023-02-19T08:47:28;97269.41;;;6.09;100.00
24962;BME280;12992;50.884;13.668;2023-02-19T08:49:53;97275.84;;;5.89;100.00
24962;BME280;12992;50.884;13.668;2023-02-19T08:52:18;97277.00;;;5.82;100.00
24962;BME280;12992;50.884;13.668;2023-02-19T08:54:44;97284.19;;;5.88;100.00
24962;BME280;12992;50.884;13.668;2023-02-19T08:57:09;97276.56;;;5.66;100.00
24962;BME280;12992;50.884;13.668;2023-02-19T08:59:35;97286.56;;;5.66;100.00
24962;BME280;12992;50.884;13.668;2023-02-19T09:02:00;97301.25;;;5.52;100.00
24962;BME280;12992;50.884;13.668;2023-02-19T09:04:25;97318.41;;;5.39;100.00
24962;BME280;12992;50.884;13.668;2023-02-19T09:06:51;97339.56;;;5.42;100.00
24962;BME280;12992;50.884;13.668;2023-02-19T09:09:16;97332.56;;;5.34;100.00
24962;BME280;12992;50.884;13.668;2023-02-19T09:11:41;97347.94;;;5.34;100.00
24962;BME280;12992;50.884;13.668;2023-02-19T09:14:07;97347.59;;;5.30;100.00
24962;BME280;12992;50.884;13.668;2023-02-19T09:16:33;97360.63;;;5.33;100.00
24962;BME280;12992;50.884;13.668;2023-02-19T09:18:59;97351.88;;;5.13;100.00
24962;BME280;12992;50.884;13.668;2023-02-19T09:21:24;97355.19;;;5.15;100.00
24962;BME280;12992;50.884;13.668;2023-02-19T09:23:49;97363.44;;;4.95;100.00
24962;BME280;12992;50.884;13.668;2023-02-19T09:26:15;97364.91;;;4.91;100.00
24962;BME280;12992;50.884;13.668;2023-02-19T09:28:40;97390.53;;;5.07;100.00
24962;BME280;12992;50.884;13.668;2023-02-19T09:31:07;97386.91;;;4.95;100.00
24962;BME280;12992;50.884;13.668;2023-02-19T09:33:33;97381.59;;;4.81;100.00
24962;BME280;12992;50.884;13.668;2023-02-19T09:35:59;97380.00;;;4.67;100.00
24962;BME280;12992;50.884;13.668;2023-02-19T09:38:27;97389.94;;;4.73;100.00
24962;BME280;12992;50.884;13.668;2023-02-19T09:40:57;97405.28;;;4.73;100.00
24962;BME280;12992;50.884;13.668;2023-02-19T09:43:25;97414.47;;;4.65;100.00
24962;BME280;12992;50.884;13.668;2023-02-19T09:46:08;97404.81;;;4.51;100.00
24962;BME280;12992;50.884;13.668;2023-02-19T09:48:35;97414.53;;;4.52;100.00
24962;BME280;12992;50.884;13.668;2023-02-19T09:51:01;97415.41;;;4.39;100.00
24962;BME280;12992;50.884;13.668;2023-02-19T09:53:30;97402.66;;;4.15;100.00
24962;BME280;12992;50.884;13.668;2023-02-19T09:56:00;97430.41;;;4.29;100.00
24962;BME280;12992;50.884;13.668;2023-02-19T09:58:34;97454.66;;;4.29;100.00
24962;BME280;12992;50.884;13.668;2023-02-19T10:01:02;97455.94;;;4.19;100.00
24962;BME280;12992;50.884;13.668;2023-02-19T10:03:35;97450.41;;;3.94;100.00
24962;BME280;12992;50.884;13.668;2023-02-19T10:08:36;97459.13;;;3.77;100.00
24962;BME280;12992;50.884;13.668;2023-02-19T10:11:03;97464.50;;;3.70;100.00
24962;BME280;12992;50.884;13.668;2023-02-19T10:13:33;97452.72;;;3.51;100.00
24962;BME280;12992;50.884;13.668;2023-02-19T10:16:03;97470.34;;;3.47;100.00
24962;BME280;12992;50.884;13.668;2023-02-19T10:18:37;97496.41;;;3.53;100.00
24962;BME280;12992;50.884;13.668;2023-02-19T10:21:04;97514.66;;;3.64;100.00
24962;BME280;12992;50.884;13.668;2023-02-19T10:23:30;97519.84;;;3.73;100.00
24962;BME280;12992;50.884;13.668;2023-02-19T10:25:56;97523.78;;;3.77;100.00
24962;BME280;12992;50.884;13.668;2023-02-19T10:28:25;97541.19;;;4.07;100.00
24962;BME280;12992;50.884;13.668;2023-02-19T10:30:54;97550.72;;;4.16;100.00
24962;BME280;12992;50.884;13.668;2023-02-19T10:33:21;97568.06;;;4.40;100.00
24962;BME280;12992;50.884;13.668;2023-02-19T10:36:03;97578.63;;;4.62;100.00
24962;BME280;12992;50.884;13.668;2023-02-19T10:38:38;97592.66;;;4.83;100.00
24962;BME280;12992;50.884;13.668;2023-02-19T10:41:12;97609.78;;;5.09;100.00
24962;BME280;12992;50.884;13.668;2023-02-19T10:43:42;97590.72;;;5.04;100.00
24962;BME280;12992;50.884;13.668;2023-02-19T10:46:18;97591.91;;;5.21;100.00
24962;BME280;12992;50.884;13.668;2023-02-19T10:48:57;97596.78;;;5.37;100.00
24962;BME280;12992;50.884;13.668;2023-02-19T10:51:38;97603.31;;;5.55;100.00
24962;BME280;12992;50.884;13.668;2023-02-19T10:54:18;97628.72;;;5.85;100.00
24962;BME280;12992;50.884;13.668;2023-02-19T10:56:44;97623.94;;;5.81;100.00
24962;BME280;12992;50.884;13.668;2023-02-19T10:59:28;97617.25;;;5.90;100.00
24962;BME280;12992;50.884;13.668;2023-02-19T11:02:01;97580.81;;;5.67;100.00
24962;BME280;12992;50.884;13.668;2023-02-19T11:04:32;97565.31;;;5.18;100.00
24962;BME280;12992;50.884;13.668;2023-02-19T11:07:09;97567.44;;;5.03;100.00
24962;BME280;12992;50.884;13.668;2023-02-19T11:09:42;97563.53;;;4.99;100.00
24962;BME280;12992;50.884;13.668;2023-02-19T11:12:11;97592.25;;;5.31;100.00
24962;BME280;12992;50.884;13.668;2023-02-19T11:14:41;97611.44;;;5.55;100.00
24962;BME280;12992;50.884;13.668;2023-02-19T11:17:21;97646.69;;;6.05;100.00
24962;BME280;12992;50.884;13.668;2023-02-19T11:19:51;97647.22;;;6.20;100.00
24962;BME280;12992;50.884;13.668;2023-02-19T11:22:37;97631.00;;;6.20;100.00
24962;BME280;12992;50.884;13.668;2023-02-19T11:27:34;97612.09;;;5.82;100.00
24962;BME280;12992;50.884;13.668;2023-02-19T11:30:30;97622.53;;;5.78;100.00
24962;BME280;12992;50.884;13.668;2023-02-19T11:35:40;97601.66;;;5.22;100.00
24962;BME280;12992;50.884;13.668;2023-02-19T11:38:09;97606.16;;;5.28;100.00
24962;BME280;12992;50.884;13.668;2023-02-19T11:43:25;97609.78;;;5.16;100.00
24962;BME280;12992;50.884;13.668;2023-02-19T11:46:16;97604.53;;;5.27;100.00
24962;BME280;12992;50.884;13.668;2023-02-19T11:51:45;97623.84;;;5.31;100.00
24962;BME280;12992;50.884;13.668;2023-02-19T11:54:34;97626.06;;;5.40;100.00
24962;BME280;12992;50.884;13.668;2023-02-19T11:57:34;97617.97;;;5.40;100.00
24962;BME280;12992;50.884;13.668;2023-02-19T12:08:45;97628.78;;;5.34;100.00
24962;BME280;12992;50.884;13.668;2023-02-19T12:19:26;97626.00;;;5.02;100.00
24962;BME280;12992;50.884;13.668;2023-02-19T12:25:05;97661.69;;;5.11;100.00
24962;BME280;12992;50.884;13.668;2023-02-19T12:27:48;97643.47;;;5.00;100.00
24962;BME280;12992;50.884;13.668;2023-02-19T12:38:55;97682.19;;;5.32;100.00
24962;BME280;12992;50.884;13.668;2023-02-19T12:41:36;97651.47;;;5.20;100.00
24962;BME280;12992;50.884;13.668;2023-02-19T12:44:10;97631.81;;;5.06;100.00
24962;BME280;12992;50.884;13.668;2023-02-19T12:46:41;97648.19;;;5.11;100.00
24962;BME280;12992;50.884;13.668;2023-02-19T12:49:26;97656.94;;;5.13;100.00
24962;BME280;12992;50.884;13.668;2023-02-19T12:51:59;97636.78;;;5.09;100.00
24962;BME280;12992;50.884;13.668;2023-02-19T12:54:31;97656.50;;;5.16;100.00
24962;BME280;12992;50.884;13.668;2023-02-19T12:57:01;97696.84;;;5.56;100.00
24962;BME280;12992;50.884;13.668;2023-02-19T12:59:32;97687.03;;;5.68;100.00
24962;BME280;12992;50.884;13.668;2023-02-19T13:02:29;97693.00;;;5.77;100.00
24962;BME280;12992;50.884;13.668;2023-02-19T13:07:55;97684.81;;;5.90;100.00
24962;BME280;12992;50.884;13.668;2023-02-19T13:10:29;97668.00;;;5.88;100.00
24962;BME280;12992;50.884;13.668;2023-02-19T13:13:00;97674.25;;;5.82;100.00
24962;BME280;12992;50.884;13.668;2023-02-19T13:15:37;97680.50;;;5.82;100.00
24962;BME280;12992;50.884;13.668;2023-02-19T13:18:11;97678.00;;;5.81;100.00
24962;BME280;12992;50.884;13.668;2023-02-19T13:20:40;97670.22;;;5.66;100.00
24962;BME280;12992;50.884;13.668;2023-02-19T13:23:16;97674.56;;;5.67;100.00
24962;BME280;12992;50.884;13.668;2023-02-19T13:29:47;97668.97;;;5.62;100.00
24962;BME280;12992;50.884;13.668;2023-02-19T13:37:46;97650.53;;;5.46;100.00
24962;BME280;12992;50.884;13.668;2023-02-19T13:40:35;97631.53;;;5.27;100.00
24962;BME280;12992;50.884;13.668;2023-02-19T13:43:03;97624.13;;;5.03;100.00
24962;BME280;12992;50.884;13.668;2023-02-19T13:45:39;97652.75;;;5.10;100.00
24962;BME280;12992;50.884;13.668;2023-02-19T14:25:23;97716.16;;;5.66;100.00
24962;BME280;12992;50.884;13.668;2023-02-19T14:27:53;97712.63;;;5.59;100.00
24962;BME280;12992;50.884;13.668;2023-02-19T14:30:20;97708.66;;;5.61;100.00
24962;BME280;12992;50.884;13.668;2023-02-19T14:32:47;97676.59;;;5.33;97.20
24962;BME280;12992;50.884;13.668;2023-02-19T14:35:18;97666.44;;;5.22;95.49
24962;BME280;12992;50.884;13.668;2023-02-19T14:37:44;97674.56;;;5.16;96.04
24962;BME280;12992;50.884;13.668;2023-02-19T14:40:20;97699.41;;;5.37;97.22
24962;BME280;12992;50.884;13.668;2023-02-19T14:42:47;97679.72;;;5.30;95.26
24962;BME280;12992;50.884;13.668;2023-02-19T14:45:16;97670.63;;;5.11;98.66
24962;BME280;12992;50.884;13.668;2023-02-19T14:47:45;97661.75;;;4.91;100.00
24962;BME280;12992;50.884;13.668;2023-02-19T14:50:15;97676.06;;;4.98;98.73
24962;BME280;12992;50.884;13.668;2023-02-19T14:52:47;97671.34;;;4.80;98.46
24962;BME280;12992;50.884;13.668;2023-02-19T14:55:25;97677.78;;;4.79;97.96
24962;BME280;12992;50.884;13.668;2023-02-19T14:57:53;97689.19;;;4.81;98.80
24962;BME280;12992;50.884;13.668;2023-02-19T15:02:46;97692.91;;;4.67;100.00
24962;BME280;12992;50.884;13.668;2023-02-19T15:05:18;97685.06;;;4.46;100.00
24962;BME280;12992;50.884;13.668;2023-02-19T15:07:45;97669.09;;;4.24;100.00